Grant, CO (80448)

9:45 AM MDT on August 29, 2016 (GMT -0600)
Baldy-Breckenridge | | Change Station

Elev 10669 ft 39.47 °N, 106.01 °W | Updated 2 minutes ago

Overcast
Overcast
44.3 °F
Feels Like 44 °F
N
0.0
Wind Variable Wind from NE
Gusts 0.0 mph

Today
High -- | Low -- °F
--% Chance of Precip.
Yesterday
High -- | Low -- °F
Precip. -- in
Pressure 30.74 in
Visibility 10.0 miles
Clouds Scattered Clouds 4600 ft
Mostly Cloudy 5500 ft
Overcast 7000 ft
Windchill 44 °F
Dew Point 39 °F
Humidity 82%
Rainfall 0.00 in
Snow Depth Not available.
6:29 AM 7:37 PM
Waning Crescent, 8% visible
METAR K0CO 291541Z AUTO 10016G22KT 10SM SCT046 BKN055 OVC070 03/M03 A3074 RMK AO2
Pressure 30.74 in
Visibility 10.0 miles
Clouds Scattered Clouds 4600 ft
Mostly Cloudy 5500 ft
Overcast 7000 ft
Windchill 44 °F
Dew Point 39 °F
Humidity 82%
Rainfall 0.00 in
Snow Depth Not available.
6:29 AM 7:37 PM
Waning Crescent, 8% visible
METAR K0CO 291541Z AUTO 10016G22KT 10SM SCT046 BKN055 OVC070 03/M03 A3074 RMK AO2

10-Day Weather Forecast

Almanac

Astronomy

Aug. 29, 2016 Rise Set
Actual Time
Civil Twilight
Nautical Twilight
Astronomical Twilight
Moon
Length of Visible Light
Length of Day
Tomorrow will be .
, % of the Moon is Illuminated

Today's Extremes

State Highs State Lows

Community

WunderPhotos

Upload Photos

1,935,859 photos uploaded!

WunderBlog® & News

Nearby

Air Quality

  Air Quality AQ Index Pollutant
Not available.

Snow Depth

Station Depth Elevation

Earthquake Activity

City Distance Mag. Time & Date
Minimum magnitude displayed is 2.5.

Coastal Water Temperatures

Place Temperature

Stations

Nearby Weather Stations

Station Location Temp. Windchill Dew Point Humidity Wind Precip. Elev Updated Type
                   

Watches & Warnings

There are currently no watches in effect.